sensor_id;sensor_type;location;lat;lon;timestamp;P1;durP1;ratioP1;P2;durP2;ratioP2
44430;SDS011;30135;47.866;-4.222;2023-04-15T00:01:07;14.35;;;2.80;;
44430;SDS011;30135;47.866;-4.222;2023-04-15T00:03:34;8.40;;;1.33;;
44430;SDS011;30135;47.866;-4.222;2023-04-15T00:06:00;6.05;;;1.40;;
44430;SDS011;30135;47.866;-4.222;2023-04-15T00:08:26;6.78;;;1.35;;
44430;SDS011;30135;47.866;-4.222;2023-04-15T00:10:54;6.82;;;1.42;;
44430;SDS011;30135;47.866;-4.222;2023-04-15T00:13:20;8.23;;;1.25;;
44430;SDS011;30135;47.866;-4.222;2023-04-15T00:15:46;8.70;;;1.00;;
44430;SDS011;30135;47.866;-4.222;2023-04-15T00:18:12;7.10;;;1.17;;
44430;SDS011;30135;47.866;-4.222;2023-04-15T00:20:38;7.25;;;1.48;;
44430;SDS011;30135;47.866;-4.222;2023-04-15T00:23:06;14.48;;;1.63;;
44430;SDS011;30135;47.866;-4.222;2023-04-15T00:25:32;7.30;;;1.60;;
44430;SDS011;30135;47.866;-4.222;2023-04-15T00:27:59;7.32;;;0.95;;
44430;SDS011;30135;47.866;-4.222;2023-04-15T00:30:25;8.60;;;1.52;;
44430;SDS011;30135;47.866;-4.222;2023-04-15T00:32:50;9.57;;;1.48;;
44430;SDS011;30135;47.866;-4.222;2023-04-15T00:35:16;8.23;;;0.73;;
44430;SDS011;30135;47.866;-4.222;2023-04-15T00:37:42;5.50;;;1.15;;
44430;SDS011;30135;47.866;-4.222;2023-04-15T00:40:11;4.88;;;0.90;;
44430;SDS011;30135;47.866;-4.222;2023-04-15T00:42:38;7.40;;;1.58;;
44430;SDS011;30135;47.866;-4.222;2023-04-15T00:45:04;13.10;;;1.08;;
44430;SDS011;30135;47.866;-4.222;2023-04-15T00:47:31;7.20;;;1.45;;
44430;SDS011;30135;47.866;-4.222;2023-04-15T00:49:59;13.65;;;1.25;;
44430;SDS011;30135;47.866;-4.222;2023-04-15T00:52:25;10.65;;;1.33;;
44430;SDS011;30135;47.866;-4.222;2023-04-15T00:54:51;10.90;;;1.10;;
44430;SDS011;30135;47.866;-4.222;2023-04-15T00:57:17;13.90;;;1.27;;
44430;SDS011;30135;47.866;-4.222;2023-04-15T00:59:46;4.90;;;0.80;;
44430;SDS011;30135;47.866;-4.222;2023-04-15T01:02:12;12.18;;;1.27;;
44430;SDS011;30135;47.866;-4.222;2023-04-15T01:04:39;6.32;;;1.38;;
44430;SDS011;30135;47.866;-4.222;2023-04-15T01:07:06;3.95;;;0.80;;
44430;SDS011;30135;47.866;-4.222;2023-04-15T01:09:33;10.48;;;1.10;;
44430;SDS011;30135;47.866;-4.222;2023-04-15T01:11:59;12.60;;;2.67;;
44430;SDS011;30135;47.866;-4.222;2023-04-15T01:14:26;8.57;;;1.30;;
44430;SDS011;30135;47.866;-4.222;2023-04-15T01:16:53;7.10;;;2.15;;
44430;SDS011;30135;47.866;-4.222;2023-04-15T01:19:19;10.40;;;1.60;;
44430;SDS011;30135;47.866;-4.222;2023-04-15T01:21:45;16.80;;;1.75;;
44430;SDS011;30135;47.866;-4.222;2023-04-15T01:24:11;8.38;;;1.42;;
44430;SDS011;30135;47.866;-4.222;2023-04-15T01:26:40;6.65;;;1.67;;
44430;SDS011;30135;47.866;-4.222;2023-04-15T01:29:06;3.70;;;0.98;;
44430;SDS011;30135;47.866;-4.222;2023-04-15T01:31:32;14.02;;;1.15;;
44430;SDS011;30135;47.866;-4.222;2023-04-15T01:33:58;5.95;;;1.17;;
44430;SDS011;30135;47.866;-4.222;2023-04-15T01:36:25;9.95;;;1.42;;
44430;SDS011;30135;47.866;-4.222;2023-04-15T01:38:52;10.70;;;2.03;;
44430;SDS011;30135;47.866;-4.222;2023-04-15T01:41:25;8.65;;;2.13;;
44430;SDS011;30135;47.866;-4.222;2023-04-15T01:43:52;11.70;;;1.52;;
44430;SDS011;30135;47.866;-4.222;2023-04-15T01:46:19;10.88;;;1.35;;
44430;SDS011;30135;47.866;-4.222;2023-04-15T01:48:45;10.40;;;0.90;;
44430;SDS011;30135;47.866;-4.222;2023-04-15T01:51:11;11.25;;;1.27;;
44430;SDS011;30135;47.866;-4.222;2023-04-15T01:53:37;8.00;;;1.17;;
44430;SDS011;30135;47.866;-4.222;2023-04-15T01:56:03;19.90;;;1.63;;
44430;SDS011;30135;47.866;-4.222;2023-04-15T01:58:31;5.95;;;1.10;;
44430;SDS011;30135;47.866;-4.222;2023-04-15T02:00:57;4.05;;;1.00;;
44430;SDS011;30135;47.866;-4.222;2023-04-15T02:03:23;13.15;;;1.25;;
44430;SDS011;30135;47.866;-4.222;2023-04-15T02:05:50;5.95;;;1.20;;
44430;SDS011;30135;47.866;-4.222;2023-04-15T02:08:16;11.05;;;1.40;;
44430;SDS011;30135;47.866;-4.222;2023-04-15T02:10:42;3.25;;;0.93;;
44430;SDS011;30135;47.866;-4.222;2023-04-15T02:13:08;12.20;;;1.10;;
44430;SDS011;30135;47.866;-4.222;2023-04-15T02:15:34;6.93;;;1.25;;
44430;SDS011;30135;47.866;-4.222;2023-04-15T02:18:01;9.50;;;1.13;;
44430;SDS011;30135;47.866;-4.222;2023-04-15T02:20:27;11.65;;;1.58;;
44430;SDS011;30135;47.866;-4.222;2023-04-15T02:22:54;2.95;;;1.40;;
44430;SDS011;30135;47.866;-4.222;2023-04-15T02:25:21;17.63;;;1.48;;
44430;SDS011;30135;47.866;-4.222;2023-04-15T02:27:47;7.85;;;1.48;;
44430;SDS011;30135;47.866;-4.222;2023-04-15T02:30:13;11.55;;;2.67;;
44430;SDS011;30135;47.866;-4.222;2023-04-15T02:32:39;2.42;;;0.85;;
44430;SDS011;30135;47.866;-4.222;2023-04-15T02:35:08;6.28;;;1.33;;
44430;SDS011;30135;47.866;-4.222;2023-04-15T02:37:36;6.05;;;1.90;;
44430;SDS011;30135;47.866;-4.222;2023-04-15T02:40:07;13.88;;;1.50;;
44430;SDS011;30135;47.866;-4.222;2023-04-15T02:45:08;10.63;;;2.05;;
44430;SDS011;30135;47.866;-4.222;2023-04-15T02:47:36;11.50;;;1.58;;
44430;SDS011;30135;47.866;-4.222;2023-04-15T02:50:09;9.98;;;0.77;;
44430;SDS011;30135;47.866;-4.222;2023-04-15T02:52:40;8.60;;;1.10;;
44430;SDS011;30135;47.866;-4.222;2023-04-15T02:55:07;11.13;;;1.90;;
44430;SDS011;30135;47.866;-4.222;2023-04-15T02:57:33;14.95;;;1.08;;
44430;SDS011;30135;47.866;-4.222;2023-04-15T03:00:02;10.98;;;1.27;;
44430;SDS011;30135;47.866;-4.222;2023-04-15T03:02:35;10.75;;;1.70;;
44430;SDS011;30135;47.866;-4.222;2023-04-15T03:05:02;7.03;;;0.98;;
44430;SDS011;30135;47.866;-4.222;2023-04-15T03:07:30;24.45;;;1.25;;
44430;SDS011;30135;47.866;-4.222;2023-04-15T03:09:56;6.18;;;1.63;;
44430;SDS011;30135;47.866;-4.222;2023-04-15T03:12:22;5.55;;;1.00;;
44430;SDS011;30135;47.866;-4.222;2023-04-15T03:14:48;12.32;;;1.30;;
44430;SDS011;30135;47.866;-4.222;2023-04-15T03:17:14;4.72;;;1.80;;
44430;SDS011;30135;47.866;-4.222;2023-04-15T03:19:40;11.18;;;1.50;;
44430;SDS011;30135;47.866;-4.222;2023-04-15T03:22:06;10.48;;;1.38;;
44430;SDS011;30135;47.866;-4.222;2023-04-15T03:24:32;5.18;;;1.20;;
44430;SDS011;30135;47.866;-4.222;2023-04-15T03:26:58;6.88;;;1.60;;
44430;SDS011;30135;47.866;-4.222;2023-04-15T03:29:25;10.32;;;1.30;;
44430;SDS011;30135;47.866;-4.222;2023-04-15T03:31:51;7.45;;;1.60;;
44430;SDS011;30135;47.866;-4.222;2023-04-15T03:34:17;6.47;;;1.88;;
44430;SDS011;30135;47.866;-4.222;2023-04-15T03:36:44;11.57;;;2.00;;
44430;SDS011;30135;47.866;-4.222;2023-04-15T03:39:11;11.13;;;1.05;;
44430;SDS011;30135;47.866;-4.222;2023-04-15T03:41:37;6.78;;;2.58;;
44430;SDS011;30135;47.866;-4.222;2023-04-15T03:44:03;7.15;;;1.77;;
44430;SDS011;30135;47.866;-4.222;2023-04-15T03:46:29;13.13;;;2.17;;
44430;SDS011;30135;47.866;-4.222;2023-04-15T03:48:55;4.55;;;1.63;;
44430;SDS011;30135;47.866;-4.222;2023-04-15T03:51:21;10.63;;;1.40;;
44430;SDS011;30135;47.866;-4.222;2023-04-15T03:53:47;6.72;;;1.85;;
44430;SDS011;30135;47.866;-4.222;2023-04-15T03:56:13;7.63;;;1.65;;
44430;SDS011;30135;47.866;-4.222;2023-04-15T03:58:39;17.13;;;2.45;;
44430;SDS011;30135;47.866;-4.222;2023-04-15T04:01:05;8.45;;;1.48;;
44430;SDS011;30135;47.866;-4.222;2023-04-15T04:03:31;10.13;;;1.55;;
44430;SDS011;30135;47.866;-4.222;2023-04-15T04:05:57;16.02;;;1.88;;
44430;SDS011;30135;47.866;-4.222;2023-04-15T04:08:23;8.65;;;1.40;;
44430;SDS011;30135;47.866;-4.222;2023-04-15T04:10:51;7.65;;;1.73;;
44430;SDS011;30135;47.866;-4.222;2023-04-15T04:13:17;15.63;;;2.05;;
44430;SDS011;30135;47.866;-4.222;2023-04-15T04:15:43;15.38;;;2.00;;
44430;SDS011;30135;47.866;-4.222;2023-04-15T04:18:09;6.63;;;2.22;;
44430;SDS011;30135;47.866;-4.222;2023-04-15T04:20:35;14.68;;;2.33;;
44430;SDS011;30135;47.866;-4.222;2023-04-15T04:23:01;20.48;;;2.13;;
44430;SDS011;30135;47.866;-4.222;2023-04-15T04:25:27;21.33;;;2.90;;
44430;SDS011;30135;47.866;-4.222;2023-04-15T04:27:57;11.18;;;1.92;;
44430;SDS011;30135;47.866;-4.222;2023-04-15T04:30:23;17.05;;;2.95;;
44430;SDS011;30135;47.866;-4.222;2023-04-15T04:32:49;14.35;;;2.78;;
44430;SDS011;30135;47.866;-4.222;2023-04-15T04:35:15;28.55;;;3.05;;
44430;SDS011;30135;47.866;-4.222;2023-04-15T04:37:42;15.65;;;3.42;;
44430;SDS011;30135;47.866;-4.222;2023-04-15T04:40:08;24.77;;;4.20;;
44430;SDS011;30135;47.866;-4.222;2023-04-15T04:42:34;20.58;;;2.53;;
44430;SDS011;30135;47.866;-4.222;2023-04-15T04:45:00;31.08;;;5.07;;
44430;SDS011;30135;47.866;-4.222;2023-04-15T04:47:26;19.60;;;3.38;;
44430;SDS011;30135;47.866;-4.222;2023-04-15T04:49:52;26.85;;;3.33;;
44430;SDS011;30135;47.866;-4.222;2023-04-15T04:52:18;15.23;;;2.63;;
44430;SDS011;30135;47.866;-4.222;2023-04-15T04:54:44;18.70;;;3.90;;
44430;SDS011;30135;47.866;-4.222;2023-04-15T04:57:13;19.02;;;3.58;;
44430;SDS011;30135;47.866;-4.222;2023-04-15T04:59:39;19.63;;;3.80;;
44430;SDS011;30135;47.866;-4.222;2023-04-15T05:02:05;31.90;;;4.00;;
44430;SDS011;30135;47.866;-4.222;2023-04-15T05:04:31;15.52;;;3.03;;
44430;SDS011;30135;47.866;-4.222;2023-04-15T05:06:58;18.45;;;3.42;;
44430;SDS011;30135;47.866;-4.222;2023-04-15T05:09:24;16.08;;;2.85;;
44430;SDS011;30135;47.866;-4.222;2023-04-15T05:11:50;12.07;;;2.67;;
44430;SDS011;30135;47.866;-4.222;2023-04-15T05:14:16;19.55;;;2.65;;
44430;SDS011;30135;47.866;-4.222;2023-04-15T05:16:42;15.43;;;1.90;;
44430;SDS011;30135;47.866;-4.222;2023-04-15T05:19:08;20.88;;;2.92;;
44430;SDS011;30135;47.866;-4.222;2023-04-15T05:21:34;12.32;;;2.22;;
44430;SDS011;30135;47.866;-4.222;2023-04-15T05:24:01;16.52;;;2.70;;
44430;SDS011;30135;47.866;-4.222;2023-04-15T05:26:30;14.17;;;2.87;;
44430;SDS011;30135;47.866;-4.222;2023-04-15T05:28:56;14.93;;;3.00;;
44430;SDS011;30135;47.866;-4.222;2023-04-15T05:31:22;18.73;;;2.75;;
44430;SDS011;30135;47.866;-4.222;2023-04-15T05:33:49;13.07;;;2.60;;
44430;SDS011;30135;47.866;-4.222;2023-04-15T05:36:15;9.98;;;2.05;;
44430;SDS011;30135;47.866;-4.222;2023-04-15T05:38:41;11.95;;;2.13;;
44430;SDS011;30135;47.866;-4.222;2023-04-15T05:41:07;16.17;;;3.65;;
44430;SDS011;30135;47.866;-4.222;2023-04-15T05:43:33;17.70;;;2.80;;
44430;SDS011;30135;47.866;-4.222;2023-04-15T05:45:59;21.45;;;4.00;;
44430;SDS011;30135;47.866;-4.222;2023-04-15T05:48:25;29.67;;;2.72;;
44430;SDS011;30135;47.866;-4.222;2023-04-15T05:50:54;15.43;;;3.37;;
44430;SDS011;30135;47.866;-4.222;2023-04-15T05:53:20;17.88;;;1.83;;
44430;SDS011;30135;47.866;-4.222;2023-04-15T05:55:46;16.98;;;2.65;;
44430;SDS011;30135;47.866;-4.222;2023-04-15T05:58:13;10.18;;;2.38;;
44430;SDS011;30135;47.866;-4.222;2023-04-15T06:00:39;9.68;;;1.85;;
44430;SDS011;30135;47.866;-4.222;2023-04-15T06:03:05;17.83;;;2.05;;
44430;SDS011;30135;47.866;-4.222;2023-04-15T06:05:31;7.30;;;1.52;;
44430;SDS011;30135;47.866;-4.222;2023-04-15T06:07:58;12.80;;;2.42;;
44430;SDS011;30135;47.866;-4.222;2023-04-15T06:10:24;7.05;;;1.77;;
44430;SDS011;30135;47.866;-4.222;2023-04-15T06:12:51;12.55;;;1.17;;
44430;SDS011;30135;47.866;-4.222;2023-04-15T06:15:18;7.95;;;1.45;;
44430;SDS011;30135;47.866;-4.222;2023-04-15T06:17:44;14.70;;;1.95;;
44430;SDS011;30135;47.866;-4.222;2023-04-15T06:20:12;8.20;;;1.10;;
44430;SDS011;30135;47.866;-4.222;2023-04-15T06:22:45;24.80;;;2.15;;
44430;SDS011;30135;47.866;-4.222;2023-04-15T06:25:12;11.55;;;1.83;;
44430;SDS011;30135;47.866;-4.222;2023-04-15T06:27:38;8.60;;;1.65;;
44430;SDS011;30135;47.866;-4.222;2023-04-15T06:30:04;11.32;;;0.85;;
44430;SDS011;30135;47.866;-4.222;2023-04-15T06:32:32;4.93;;;0.82;;
44430;SDS011;30135;47.866;-4.222;2023-04-15T06:34:57;7.80;;;1.48;;
44430;SDS011;30135;47.866;-4.222;2023-04-15T06:37:24;12.27;;;1.40;;
44430;SDS011;30135;47.866;-4.222;2023-04-15T06:39:50;11.68;;;1.52;;
44430;SDS011;30135;47.866;-4.222;2023-04-15T06:42:15;7.97;;;1.40;;
44430;SDS011;30135;47.866;-4.222;2023-04-15T06:44:41;11.25;;;2.00;;
44430;SDS011;30135;47.866;-4.222;2023-04-15T06:47:07;7.88;;;2.15;;
44430;SDS011;30135;47.866;-4.222;2023-04-15T06:49:33;11.63;;;3.50;;
44430;SDS011;30135;47.866;-4.222;2023-04-15T06:52:00;29.15;;;9.68;;
44430;SDS011;30135;47.866;-4.222;2023-04-15T06:54:26;38.60;;;12.27;;
44430;SDS011;30135;47.866;-4.222;2023-04-15T06:56:52;38.28;;;13.07;;
44430;SDS011;30135;47.866;-4.222;2023-04-15T06:59:27;36.90;;;11.03;;
44430;SDS011;30135;47.866;-4.222;2023-04-15T07:01:54;34.28;;;12.02;;
44430;SDS011;30135;47.866;-4.222;2023-04-15T07:04:20;36.30;;;9.40;;
44430;SDS011;30135;47.866;-4.222;2023-04-15T07:06:46;25.27;;;8.32;;
44430;SDS011;30135;47.866;-4.222;2023-04-15T07:09:12;16.10;;;5.13;;
44430;SDS011;30135;47.866;-4.222;2023-04-15T07:11:38;18.10;;;4.40;;
44430;SDS011;30135;47.866;-4.222;2023-04-15T07:14:04;9.98;;;3.70;;
44430;SDS011;30135;47.866;-4.222;2023-04-15T07:16:30;12.75;;;1.73;;
44430;SDS011;30135;47.866;-4.222;2023-04-15T07:18:56;9.02;;;2.38;;
44430;SDS011;30135;47.866;-4.222;2023-04-15T07:21:23;12.90;;;1.73;;
44430;SDS011;30135;47.866;-4.222;2023-04-15T07:23:49;17.20;;;1.65;;
44430;SDS011;30135;47.866;-4.222;2023-04-15T07:26:16;16.67;;;1.67;;
44430;SDS011;30135;47.866;-4.222;2023-04-15T07:28:42;11.43;;;1.52;;
44430;SDS011;30135;47.866;-4.222;2023-04-15T07:31:08;9.52;;;2.00;;
44430;SDS011;30135;47.866;-4.222;2023-04-15T07:33:34;12.10;;;1.23;;
44430;SDS011;30135;47.866;-4.222;2023-04-15T07:36:01;16.13;;;1.35;;
44430;SDS011;30135;47.866;-4.222;2023-04-15T07:38:27;9.07;;;1.20;;
44430;SDS011;30135;47.866;-4.222;2023-04-15T07:40:54;17.15;;;2.67;;
44430;SDS011;30135;47.866;-4.222;2023-04-15T07:43:20;8.70;;;1.38;;
44430;SDS011;30135;47.866;-4.222;2023-04-15T07:45:46;13.68;;;1.58;;
44430;SDS011;30135;47.866;-4.222;2023-04-15T07:48:12;6.15;;;1.52;;
44430;SDS011;30135;47.866;-4.222;2023-04-15T07:50:38;12.15;;;1.77;;
44430;SDS011;30135;47.866;-4.222;2023-04-15T07:53:04;12.23;;;1.30;;
44430;SDS011;30135;47.866;-4.222;2023-04-15T07:55:31;10.75;;;1.55;;
44430;SDS011;30135;47.866;-4.222;2023-04-15T07:57:57;12.98;;;1.88;;
44430;SDS011;30135;47.866;-4.222;2023-04-15T08:00:23;12.10;;;1.55;;
44430;SDS011;30135;47.866;-4.222;2023-04-15T08:02:50;19.52;;;1.60;;
44430;SDS011;30135;47.866;-4.222;2023-04-15T08:05:17;13.15;;;1.08;;
44430;SDS011;30135;47.866;-4.222;2023-04-15T08:07:46;16.25;;;1.20;;
44430;SDS011;30135;47.866;-4.222;2023-04-15T08:10:13;15.60;;;1.35;;
44430;SDS011;30135;47.866;-4.222;2023-04-15T08:12:39;5.93;;;0.93;;
44430;SDS011;30135;47.866;-4.222;2023-04-15T08:15:09;15.05;;;1.52;;
44430;SDS011;30135;47.866;-4.222;2023-04-15T08:17:37;8.43;;;1.10;;
44430;SDS011;30135;47.866;-4.222;2023-04-15T08:20:03;13.10;;;1.08;;
44430;SDS011;30135;47.866;-4.222;2023-04-15T08:22:30;5.78;;;0.75;;
44430;SDS011;30135;47.866;-4.222;2023-04-15T08:24:55;3.58;;;0.47;;
44430;SDS011;30135;47.866;-4.222;2023-04-15T08:27:24;11.10;;;1.13;;
44430;SDS011;30135;47.866;-4.222;2023-04-15T08:29:50;15.82;;;0.95;;
44430;SDS011;30135;47.866;-4.222;2023-04-15T08:32:16;5.70;;;0.95;;
44430;SDS011;30135;47.866;-4.222;2023-04-15T08:34:43;9.40;;;1.52;;
44430;SDS011;30135;47.866;-4.222;2023-04-15T08:37:09;8.38;;;1.17;;
44430;SDS011;30135;47.866;-4.222;2023-04-15T08:39:35;10.38;;;1.70;;
44430;SDS011;30135;47.866;-4.222;2023-04-15T08:42:02;8.85;;;2.30;;
44430;SDS011;30135;47.866;-4.222;2023-04-15T08:44:34;7.28;;;1.40;;
44430;SDS011;30135;47.866;-4.222;2023-04-15T08:47:06;12.23;;;3.03;;
44430;SDS011;30135;47.866;-4.222;2023-04-15T08:49:34;9.97;;;1.00;;
44430;SDS011;30135;47.866;-4.222;2023-04-15T08:52:04;8.30;;;0.80;;
44430;SDS011;30135;47.866;-4.222;2023-04-15T08:54:31;10.77;;;1.05;;
44430;SDS011;30135;47.866;-4.222;2023-04-15T08:56:59;14.88;;;1.30;;
44430;SDS011;30135;47.866;-4.222;2023-04-15T08:59:26;9.65;;;1.50;;
44430;SDS011;30135;47.866;-4.222;2023-04-15T09:01:56;9.32;;;0.90;;
44430;SDS011;30135;47.866;-4.222;2023-04-15T09:04:23;7.82;;;0.93;;
44430;SDS011;30135;47.866;-4.222;2023-04-15T09:06:49;9.70;;;0.68;;
44430;SDS011;30135;47.866;-4.222;2023-04-15T09:09:16;9.77;;;1.27;;
44430;SDS011;30135;47.866;-4.222;2023-04-15T09:11:42;2.53;;;0.52;;
44430;SDS011;30135;47.866;-4.222;2023-04-15T09:14:08;4.13;;;0.93;;
44430;SDS011;30135;47.866;-4.222;2023-04-15T09:19:24;2.67;;;0.40;;
44430;SDS011;30135;47.866;-4.222;2023-04-15T09:21:51;12.20;;;0.88;;
44430;SDS011;30135;47.866;-4.222;2023-04-15T09:24:21;12.15;;;1.40;;
44430;SDS011;30135;47.866;-4.222;2023-04-15T09:26:48;5.90;;;0.80;;
44430;SDS011;30135;47.866;-4.222;2023-04-15T09:29:18;8.20;;;0.68;;
44430;SDS011;30135;47.866;-4.222;2023-04-15T09:31:45;11.88;;;1.20;;
44430;SDS011;30135;47.866;-4.222;2023-04-15T09:34:11;4.25;;;1.15;;
44430;SDS011;30135;47.866;-4.222;2023-04-15T09:39:20;10.43;;;0.63;;
44430;SDS011;30135;47.866;-4.222;2023-04-15T09:41:46;5.25;;;0.75;;
44430;SDS011;30135;47.866;-4.222;2023-04-15T09:44:30;5.70;;;0.50;;
44430;SDS011;30135;47.866;-4.222;2023-04-15T09:46:59;3.10;;;0.65;;
44430;SDS011;30135;47.866;-4.222;2023-04-15T09:49:26;2.10;;;0.52;;
44430;SDS011;30135;47.866;-4.222;2023-04-15T09:51:56;2.05;;;0.25;;
44430;SDS011;30135;47.866;-4.222;2023-04-15T09:54:33;4.82;;;0.75;;
44430;SDS011;30135;47.866;-4.222;2023-04-15T09:57:05;2.72;;;0.45;;
44430;SDS011;30135;47.866;-4.222;2023-04-15T09:59:49;2.45;;;0.30;;
44430;SDS011;30135;47.866;-4.222;2023-04-15T10:02:22;3.72;;;0.40;;
44430;SDS011;30135;47.866;-4.222;2023-04-15T10:04:48;5.53;;;0.50;;
44430;SDS011;30135;47.866;-4.222;2023-04-15T10:07:15;6.13;;;0.52;;
44430;SDS011;30135;47.866;-4.222;2023-04-15T10:09:44;6.47;;;0.60;;
44430;SDS011;30135;47.866;-4.222;2023-04-15T10:12:11;2.45;;;0.30;;
44430;SDS011;30135;47.866;-4.222;2023-04-15T10:14:37;6.30;;;0.43;;
44430;SDS011;30135;47.866;-4.222;2023-04-15T10:17:07;3.45;;;0.50;;
44430;SDS011;30135;47.866;-4.222;2023-04-15T10:19:39;2.53;;;0.32;;
44430;SDS011;30135;47.866;-4.222;2023-04-15T10:22:05;2.63;;;0.40;;
44430;SDS011;30135;47.866;-4.222;2023-04-15T10:24:32;5.90;;;0.40;;
44430;SDS011;30135;47.866;-4.222;2023-04-15T10:26:59;3.15;;;0.50;;
44430;SDS011;30135;47.866;-4.222;2023-04-15T10:29:27;2.42;;;0.30;;
44430;SDS011;30135;47.866;-4.222;2023-04-15T10:31:54;1.10;;;0.47;;
44430;SDS011;30135;47.866;-4.222;2023-04-15T10:34:22;2.42;;;0.47;;
44430;SDS011;30135;47.866;-4.222;2023-04-15T10:36:49;3.22;;;0.25;;
44430;SDS011;30135;47.866;-4.222;2023-04-15T10:44:41;1.70;;;0.68;;
44430;SDS011;30135;47.866;-4.222;2023-04-15T10:47:19;1.15;;;0.32;;
44430;SDS011;30135;47.866;-4.222;2023-04-15T10:49:49;2.88;;;0.28;;
44430;SDS011;30135;47.866;-4.222;2023-04-15T10:52:22;9.35;;;0.73;;
44430;SDS011;30135;47.866;-4.222;2023-04-15T10:55:01;5.07;;;1.00;;
44430;SDS011;30135;47.866;-4.222;2023-04-15T10:57:51;1.70;;;0.50;;
44430;SDS011;30135;47.866;-4.222;2023-04-15T11:00:20;2.30;;;0.43;;
44430;SDS011;30135;47.866;-4.222;2023-04-15T11:02:51;3.63;;;0.55;;
44430;SDS011;30135;47.866;-4.222;2023-04-15T11:08:07;3.40;;;0.60;;
44430;SDS011;30135;47.866;-4.222;2023-04-15T11:13:04;12.50;;;1.02;;
44430;SDS011;30135;47.866;-4.222;2023-04-15T11:15:45;3.00;;;0.30;;
44430;SDS011;30135;47.866;-4.222;2023-04-15T11:20:39;3.03;;;0.40;;
44430;SDS011;30135;47.866;-4.222;2023-04-15T11:23:09;4.05;;;0.47;;
44430;SDS011;30135;47.866;-4.222;2023-04-15T11:25:35;6.88;;;1.13;;
44430;SDS011;30135;47.866;-4.222;2023-04-15T11:28:02;2.53;;;0.47;;
44430;SDS011;30135;47.866;-4.222;2023-04-15T11:30:30;0.85;;;0.50;;
44430;SDS011;30135;47.866;-4.222;2023-04-15T11:33:00;3.90;;;1.00;;
44430;SDS011;30135;47.866;-4.222;2023-04-15T11:35:32;7.40;;;0.95;;
44430;SDS011;30135;47.866;-4.222;2023-04-15T11:38:03;4.25;;;0.68;;
44430;SDS011;30135;47.866;-4.222;2023-04-15T11:40:30;9.23;;;1.05;;
44430;SDS011;30135;47.866;-4.222;2023-04-15T11:45:56;1.90;;;0.40;;
44430;SDS011;30135;47.866;-4.222;2023-04-15T11:48:28;3.08;;;0.80;;
44430;SDS011;30135;47.866;-4.222;2023-04-15T11:51:06;5.32;;;0.70;;
44430;SDS011;30135;47.866;-4.222;2023-04-15T11:53:48;14.27;;;2.15;;
44430;SDS011;30135;47.866;-4.222;2023-04-15T11:56:23;5.53;;;0.52;;
44430;SDS011;30135;47.866;-4.222;2023-04-15T11:58:55;6.18;;;0.82;;
44430;SDS011;30135;47.866;-4.222;2023-04-15T12:01:38;10.68;;;0.80;;
44430;SDS011;30135;47.866;-4.222;2023-04-15T12:04:14;5.30;;;0.68;;
44430;SDS011;30135;47.866;-4.222;2023-04-15T12:06:44;5.20;;;0.45;;
44430;SDS011;30135;47.866;-4.222;2023-04-15T12:09:16;4.63;;;0.60;;
44430;SDS011;30135;47.866;-4.222;2023-04-15T12:16:50;3.80;;;0.77;;
44430;SDS011;30135;47.866;-4.222;2023-04-15T12:19:25;4.13;;;0.50;;
44430;SDS011;30135;47.866;-4.222;2023-04-15T12:22:03;1.83;;;0.45;;
44430;SDS011;30135;47.866;-4.222;2023-04-15T12:24:35;4.93;;;0.45;;
44430;SDS011;30135;47.866;-4.222;2023-04-15T12:27:02;4.47;;;0.98;;
44430;SDS011;30135;47.866;-4.222;2023-04-15T12:29:34;4.30;;;0.40;;
44430;SDS011;30135;47.866;-4.222;2023-04-15T12:34:35;5.22;;;0.95;;
44430;SDS011;30135;47.866;-4.222;2023-04-15T12:37:07;4.05;;;0.45;;
44430;SDS011;30135;47.866;-4.222;2023-04-15T12:39:36;7.82;;;0.68;;
44430;SDS011;30135;47.866;-4.222;2023-04-15T12:42:08;4.53;;;1.17;;
44430;SDS011;30135;47.866;-4.222;2023-04-15T12:44:35;6.55;;;0.77;;
44430;SDS011;30135;47.866;-4.222;2023-04-15T12:47:08;8.68;;;1.15;;
44430;SDS011;30135;47.866;-4.222;2023-04-15T12:49:35;5.35;;;0.57;;
44430;SDS011;30135;47.866;-4.222;2023-04-15T12:52:02;9.57;;;0.50;;
44430;SDS011;30135;47.866;-4.222;2023-04-15T12:54:31;1.35;;;0.93;;
44430;SDS011;30135;47.866;-4.222;2023-04-15T12:59:25;4.18;;;0.57;;
44430;SDS011;30135;47.866;-4.222;2023-04-15T13:01:52;4.53;;;0.35;;
44430;SDS011;30135;47.866;-4.222;2023-04-15T13:04:19;8.98;;;0.47;;
44430;SDS011;30135;47.866;-4.222;2023-04-15T13:06:45;4.45;;;0.80;;
44430;SDS011;30135;47.866;-4.222;2023-04-15T13:09:14;1.30;;;0.40;;
44430;SDS011;30135;47.866;-4.222;2023-04-15T13:11:40;6.80;;;1.67;;
44430;SDS011;30135;47.866;-4.222;2023-04-15T13:14:07;5.35;;;1.38;;
44430;SDS011;30135;47.866;-4.222;2023-04-15T13:16:35;2.97;;;1.52;;
44430;SDS011;30135;47.866;-4.222;2023-04-15T13:19:04;10.35;;;1.38;;
44430;SDS011;30135;47.866;-4.222;2023-04-15T13:21:30;2.40;;;0.88;;
44430;SDS011;30135;47.866;-4.222;2023-04-15T13:23:59;7.25;;;0.52;;
44430;SDS011;30135;47.866;-4.222;2023-04-15T13:26:25;2.80;;;0.88;;
44430;SDS011;30135;47.866;-4.222;2023-04-15T13:28:52;8.82;;;0.82;;
44430;SDS011;30135;47.866;-4.222;2023-04-15T13:31:19;10.57;;;0.95;;
44430;SDS011;30135;47.866;-4.222;2023-04-15T13:33:45;7.47;;;1.40;;
44430;SDS011;30135;47.866;-4.222;2023-04-15T13:36:11;14.25;;;1.63;;
44430;SDS011;30135;47.866;-4.222;2023-04-15T13:38:37;9.45;;;1.38;;
44430;SDS011;30135;47.866;-4.222;2023-04-15T13:41:03;7.68;;;1.15;;
44430;SDS011;30135;47.866;-4.222;2023-04-15T13:43:29;5.32;;;0.80;;
44430;SDS011;30135;47.866;-4.222;2023-04-15T13:45:57;5.55;;;1.60;;
44430;SDS011;30135;47.866;-4.222;2023-04-15T13:48:23;7.00;;;1.52;;
44430;SDS011;30135;47.866;-4.222;2023-04-15T13:50:49;4.88;;;0.77;;
44430;SDS011;30135;47.866;-4.222;2023-04-15T13:53:15;11.95;;;0.73;;
44430;SDS011;30135;47.866;-4.222;2023-04-15T13:55:41;8.45;;;0.93;;
44430;SDS011;30135;47.866;-4.222;2023-04-15T13:58:07;9.57;;;0.88;;
44430;SDS011;30135;47.866;-4.222;2023-04-15T14:00:34;3.83;;;0.70;;
44430;SDS011;30135;47.866;-4.222;2023-04-15T14:03:00;10.63;;;1.42;;
44430;SDS011;30135;47.866;-4.222;2023-04-15T14:05:26;4.88;;;0.88;;
44430;SDS011;30135;47.866;-4.222;2023-04-15T14:07:52;1.98;;;0.73;;
44430;SDS011;30135;47.866;-4.222;2023-04-15T14:10:21;6.20;;;0.80;;
44430;SDS011;30135;47.866;-4.222;2023-04-15T14:12:47;7.20;;;0.82;;
44430;SDS011;30135;47.866;-4.222;2023-04-15T14:15:12;9.30;;;0.98;;
44430;SDS011;30135;47.866;-4.222;2023-04-15T14:17:39;6.95;;;1.23;;
44430;SDS011;30135;47.866;-4.222;2023-04-15T14:20:06;6.30;;;0.45;;
44430;SDS011;30135;47.866;-4.222;2023-04-15T14:22:33;2.50;;;0.57;;
44430;SDS011;30135;47.866;-4.222;2023-04-15T14:24:59;9.27;;;0.82;;
44430;SDS011;30135;47.866;-4.222;2023-04-15T14:27:25;5.85;;;1.60;;
44430;SDS011;30135;47.866;-4.222;2023-04-15T14:29:53;8.77;;;1.48;;
44430;SDS011;30135;47.866;-4.222;2023-04-15T14:32:19;8.70;;;1.33;;
44430;SDS011;30135;47.866;-4.222;2023-04-15T14:34:45;9.63;;;0.70;;
44430;SDS011;30135;47.866;-4.222;2023-04-15T14:37:11;11.93;;;1.77;;
44430;SDS011;30135;47.866;-4.222;2023-04-15T14:39:37;4.70;;;0.95;;
44430;SDS011;30135;47.866;-4.222;2023-04-15T14:42:03;8.27;;;0.82;;
44430;SDS011;30135;47.866;-4.222;2023-04-15T14:44:30;5.15;;;0.60;;
44430;SDS011;30135;47.866;-4.222;2023-04-15T14:46:56;10.80;;;0.77;;
44430;SDS011;30135;47.866;-4.222;2023-04-15T14:49:22;8.85;;;1.00;;
44430;SDS011;30135;47.866;-4.222;2023-04-15T14:51:48;11.93;;;0.80;;
44430;SDS011;30135;47.866;-4.222;2023-04-15T14:54:14;18.63;;;2.38;;
44430;SDS011;30135;47.866;-4.222;2023-04-15T14:56:40;8.80;;;1.25;;
44430;SDS011;30135;47.866;-4.222;2023-04-15T14:59:06;7.18;;;1.42;;
44430;SDS011;30135;47.866;-4.222;2023-04-15T15:01:32;6.45;;;0.73;;
44430;SDS011;30135;47.866;-4.222;2023-04-15T15:03:58;12.00;;;1.15;;